createdAt,value
2022-11-26T00:01:05.058Z,2.08
2022-11-26T00:06:46.084Z,1.33
2022-11-26T00:09:26.683Z,1.60
2022-11-26T00:12:00.280Z,1.70
2022-11-26T00:14:53.947Z,2.08
2022-11-26T00:17:57.984Z,1.92
2022-11-26T00:21:21.852Z,2.22
2022-11-26T00:23:58.110Z,1.50
2022-11-26T00:26:40.099Z,2.08
2022-11-26T00:29:30.111Z,2.10
2022-11-26T00:32:17.415Z,1.92
2022-11-26T00:34:49.531Z,2.20
2022-11-26T00:37:23.664Z,2.60
2022-11-26T00:40:05.495Z,2.53
2022-11-26T00:49:59.898Z,2.20
2022-11-26T00:52:38.866Z,1.70
2022-11-26T00:55:27.301Z,2.30
2022-11-26T00:57:57.829Z,1.55
2022-11-26T01:00:42.441Z,2.65
2022-11-26T01:03:26.855Z,2.40
2022-11-26T01:09:12.919Z,2.17
2022-11-26T01:11:54.290Z,2.50
2022-11-26T01:14:44.529Z,2.35
2022-11-26T01:17:31.492Z,2.03
2022-11-26T01:20:07.831Z,2.42
2022-11-26T01:22:39.560Z,2.55
2022-11-26T01:25:18.424Z,2.55
2022-11-26T01:28:23.286Z,2.55
2022-11-26T01:36:58.513Z,3.00
2022-11-26T01:39:35.127Z,3.05
2022-11-26T01:42:16.401Z,2.70
2022-11-26T01:44:47.857Z,2.97
2022-11-26T01:47:58.567Z,2.55
2022-11-26T01:51:20.547Z,2.35
2022-11-26T01:54:13.158Z,2.50
2022-11-26T02:00:27.629Z,2.75
2022-11-26T02:03:12.366Z,2.92
2022-11-26T02:05:53.791Z,2.00
2022-11-26T02:08:31.517Z,2.20
2022-11-26T02:11:16.263Z,1.90
2022-11-26T02:13:50.858Z,1.17
2022-11-26T02:16:45.527Z,1.33
2022-11-26T02:20:16.301Z,1.50
2022-11-26T02:23:46.937Z,1.08
2022-11-26T02:26:57.400Z,1.58
2022-11-26T02:30:14.724Z,0.95
2022-11-26T02:33:05.789Z,0.63
2022-11-26T02:35:44.678Z,1.15
2022-11-26T02:38:34.336Z,1.48
2022-11-26T02:41:25.701Z,0.98
2022-11-26T02:44:02.832Z,1.13
2022-11-26T02:53:41.662Z,1.45
2022-11-26T02:54:26.856Z,1.35
2022-11-26T02:57:04.920Z,1.58
2022-11-26T02:59:39.227Z,1.45
2022-11-26T03:05:34.408Z,1.77
2022-11-26T03:11:35.314Z,2.38
2022-11-26T03:14:36.871Z,1.75
2022-11-26T03:18:17.566Z,1.95
2022-11-26T03:20:20.110Z,2.25
2022-11-26T03:26:05.366Z,1.52
2022-11-26T03:28:47.807Z,3.13
2022-11-26T03:31:22.493Z,2.17
2022-11-26T03:34:12.388Z,1.55
2022-11-26T03:36:59.882Z,2.00
2022-11-26T03:39:55.386Z,2.17
2022-11-26T03:58:30.372Z,1.55
2022-11-26T04:01:25.249Z,2.20
2022-11-26T04:04:05.970Z,2.58
2022-11-26T04:07:31.731Z,1.77
2022-11-26T04:10:12.271Z,1.92
2022-11-26T04:13:05.721Z,1.65
2022-11-26T04:16:00.938Z,1.85
2022-11-26T04:21:58.086Z,1.77
2022-11-26T04:25:05.097Z,1.75
2022-11-26T04:27:55.301Z,1.88
2022-11-26T04:30:41.269Z,2.17
2022-11-26T04:33:18.328Z,1.90
2022-11-26T04:39:52.533Z,1.35
2022-11-26T04:42:42.498Z,0.80
2022-11-26T04:51:51.258Z,1.05
2022-11-26T04:54:47.539Z,0.82
2022-11-26T05:01:46.343Z,1.67
2022-11-26T05:05:09.615Z,0.88
2022-11-26T05:08:00.522Z,1.15
2022-11-26T05:25:19.655Z,1.52
2022-11-26T05:28:04.800Z,1.25
2022-11-26T05:44:58.693Z,1.08
2022-11-26T05:48:10.503Z,0.65
2022-11-26T05:51:23.515Z,1.02
2022-11-26T05:54:25.451Z,1.13
2022-11-26T05:57:51.755Z,0.85
2022-11-26T06:08:04.156Z,1.10
2022-11-26T06:20:18.824Z,1.15
2022-11-26T06:23:09.593Z,0.75
2022-11-26T07:06:00.698Z,1.83
2022-11-26T07:09:35.775Z,2.00
2022-11-26T07:42:59.621Z,1.98
2022-11-26T07:52:59.165Z,2.10
2022-11-26T08:07:01.346Z,2.17
2022-11-26T08:09:29.543Z,1.70
2022-11-26T08:11:57.706Z,2.60
2022-11-26T08:14:25.953Z,2.13
2022-11-26T08:16:54.221Z,1.58
2022-11-26T08:19:22.540Z,2.13
2022-11-26T08:21:50.594Z,2.25
2022-11-26T08:24:21.136Z,2.55
2022-11-26T08:26:49.272Z,1.90
2022-11-26T08:29:17.379Z,2.28
2022-11-26T08:31:46.750Z,1.40
2022-11-26T08:34:17.110Z,2.00
2022-11-26T08:39:14.078Z,1.50
2022-11-26T08:41:47.396Z,1.30
2022-11-26T08:44:18.609Z,1.67
2022-11-26T08:46:46.634Z,1.38
2022-11-26T08:49:15.636Z,1.52
2022-11-26T08:51:44.259Z,1.83
2022-11-26T08:54:12.410Z,1.27
2022-11-26T08:56:40.996Z,0.90
2022-11-26T08:59:10.464Z,1.23
2022-11-26T09:01:38.754Z,1.17
2022-11-26T09:04:07.249Z,1.63
2022-11-26T09:06:37.908Z,0.98
2022-11-26T09:09:18.072Z,1.30
2022-11-26T09:14:21.728Z,1.17
2022-11-26T09:16:50.073Z,1.30
2022-11-26T09:19:19.244Z,1.38
2022-11-26T09:21:48.019Z,0.90
2022-11-26T09:24:17.407Z,0.82
2022-11-26T09:26:45.858Z,1.63
2022-11-26T09:29:15.366Z,1.38
2022-11-26T09:32:15.509Z,1.23
2022-11-26T09:34:33.405Z,0.95
2022-11-26T09:37:01.628Z,1.00
2022-11-26T09:39:30.051Z,0.80
2022-11-26T09:42:05.551Z,0.68
2022-11-26T09:44:56.948Z,0.60
2022-11-26T09:47:28.249Z,0.90
2022-11-26T09:50:08.228Z,1.35
2022-11-26T09:52:40.064Z,1.20
2022-11-26T09:55:17.359Z,1.17
2022-11-26T09:57:50.787Z,1.13
2022-11-26T10:00:26.645Z,2.58
2022-11-26T10:02:57.749Z,1.60
2022-11-26T10:05:41.481Z,1.17
2022-11-26T10:08:30.234Z,1.40
2022-11-26T10:11:04.166Z,0.73
2022-11-26T10:13:43.474Z,0.98
2022-11-26T10:16:26.751Z,1.23
2022-11-26T10:19:04.248Z,1.20
2022-11-26T10:21:58.120Z,0.90
2022-11-26T10:24:30.589Z,1.63
2022-11-26T10:27:02.979Z,1.02
2022-11-26T10:29:38.582Z,1.42
2022-11-26T10:32:15.190Z,1.50
2022-11-26T10:34:52.018Z,1.63
2022-11-26T10:37:21.875Z,0.80
2022-11-26T10:39:55.242Z,1.15
2022-11-26T10:42:26.821Z,1.55
2022-11-26T10:44:55.056Z,1.00
2022-11-26T10:47:28.893Z,1.65
2022-11-26T10:50:45.585Z,1.58
2022-11-26T10:53:07.275Z,1.10
2022-11-26T10:55:39.686Z,1.38
2022-11-26T10:58:16.197Z,1.17
2022-11-26T11:00:47.191Z,1.38
2022-11-26T11:03:28.549Z,0.93
2022-11-26T11:06:28.565Z,1.45
2022-11-26T11:08:56.796Z,1.15
2022-11-26T11:11:26.591Z,1.13
2022-11-26T11:13:55.529Z,0.82
2022-11-26T11:16:28.622Z,1.08
2022-11-26T11:18:59.180Z,0.57
2022-11-26T11:21:31.323Z,1.00
2022-11-26T11:24:11.152Z,0.80
2022-11-26T11:26:42.554Z,1.20
2022-11-26T11:29:27.730Z,1.58
2022-11-26T11:31:56.594Z,0.68
2022-11-26T11:34:30.943Z,0.80
2022-11-26T11:37:05.724Z,0.88
2022-11-26T11:39:35.787Z,0.82
2022-11-26T11:42:07.744Z,0.60
2022-11-26T11:44:40.916Z,0.65
2022-11-26T11:47:34.573Z,0.90
2022-11-26T11:50:22.296Z,0.50
2022-11-26T11:53:19.618Z,0.95
2022-11-26T11:56:00.904Z,0.85
2022-11-26T11:58:43.022Z,0.85
2022-11-26T12:01:18.636Z,0.65
2022-11-26T12:04:18.012Z,1.27
2022-11-26T12:07:35.333Z,0.50
2022-11-26T12:10:21.850Z,0.65
2022-11-26T12:13:10.996Z,0.70
2022-11-26T12:16:18.620Z,0.90
2022-11-26T12:19:01.750Z,0.40
2022-11-26T12:22:28.354Z,0.77
2022-11-26T12:25:48.051Z,0.57
2022-11-26T12:28:35.358Z,0.82
2022-11-26T12:31:07.353Z,0.70
2022-11-26T12:33:41.552Z,0.32
2022-11-26T12:36:18.363Z,0.30
2022-11-26T12:38:52.427Z,0.60
2022-11-26T12:41:26.787Z,0.40
2022-11-26T12:44:01.922Z,0.45
2022-11-26T12:46:40.491Z,0.40
2022-11-26T12:49:21.382Z,0.60
2022-11-26T12:51:56.587Z,0.68
2022-11-26T12:54:30.229Z,0.80
2022-11-26T12:57:05.311Z,0.82
2022-11-26T12:59:39.428Z,0.73
2022-11-26T13:02:21.231Z,0.57
2022-11-26T13:04:50.182Z,0.22
2022-11-26T13:07:39.503Z,0.40
2022-11-26T13:10:21.569Z,0.93
2022-11-26T13:12:59.913Z,0.70
2022-11-26T13:15:36.191Z,0.70
2022-11-26T13:18:12.121Z,1.00
2022-11-26T13:20:59.286Z,1.15
2022-11-26T13:23:42.205Z,1.15
2022-11-26T13:26:31.040Z,1.02
2022-11-26T13:29:14.287Z,0.90
2022-11-26T13:32:01.388Z,0.52
2022-11-26T13:34:50.520Z,0.60
2022-11-26T13:37:42.286Z,0.90
2022-11-26T13:40:41.640Z,0.57
2022-11-26T13:43:30.287Z,1.00
2022-11-26T13:46:09.628Z,0.90
2022-11-26T13:48:46.963Z,0.80
2022-11-26T13:51:24.211Z,0.70
2022-11-26T13:53:58.803Z,0.70
2022-11-26T13:56:32.367Z,0.90
2022-11-26T13:59:04.222Z,0.73
2022-11-26T14:01:37.196Z,0.65
2022-11-26T14:04:08.461Z,0.57
2022-11-26T14:06:36.706Z,0.60
2022-11-26T14:09:09.644Z,0.93
2022-11-26T14:11:58.191Z,0.60
2022-11-26T14:14:37.594Z,0.40
2022-11-26T14:17:21.896Z,0.85
2022-11-26T14:20:07.034Z,0.75
2022-11-26T14:22:37.339Z,1.13
2022-11-26T14:25:08.122Z,0.65
2022-11-26T14:27:38.057Z,1.00
2022-11-26T14:30:22.744Z,0.60
2022-11-26T14:33:08.043Z,0.80
2022-11-26T14:35:38.896Z,1.13
2022-11-26T14:38:26.522Z,0.88
2022-11-26T14:40:59.546Z,1.30
2022-11-26T14:43:28.218Z,0.90
2022-11-26T14:46:31.171Z,0.80
2022-11-26T14:49:46.587Z,1.35
2022-11-26T14:52:20.035Z,0.80
2022-11-26T14:54:54.372Z,0.57
2022-11-26T14:57:27.461Z,0.75
2022-11-26T15:00:01.287Z,0.70
2022-11-26T15:02:31.231Z,0.70
2022-11-26T15:05:03.082Z,0.50
2022-11-26T15:07:32.873Z,0.68
2022-11-26T15:10:02.881Z,0.70
2022-11-26T15:12:31.697Z,1.00
2022-11-26T15:15:02.989Z,1.67
2022-11-26T15:17:33.718Z,0.90
2022-11-26T15:20:07.832Z,0.73
2022-11-26T15:22:39.491Z,1.17
2022-11-26T15:25:18.540Z,1.00
2022-11-26T15:27:55.017Z,1.38
2022-11-26T15:30:25.557Z,1.30
2022-11-26T15:33:04.870Z,1.27
2022-11-26T15:35:36.403Z,1.47
2022-11-26T15:38:07.804Z,1.88
2022-11-26T15:40:47.001Z,2.20
2022-11-26T15:43:22.752Z,1.48
2022-11-26T15:46:05.966Z,1.55
2022-11-26T15:48:55.677Z,1.30
2022-11-26T15:51:34.953Z,1.50
2022-11-26T15:54:04.608Z,1.85
2022-11-26T15:56:35.557Z,1.40
2022-11-26T15:59:07.039Z,1.13
2022-11-26T16:01:37.635Z,1.80
2022-11-26T16:04:06.647Z,1.25
2022-11-26T16:06:38.082Z,1.17
2022-11-26T16:09:27.950Z,1.50
2022-11-26T16:14:33.372Z,1.48
2022-11-26T16:17:08.226Z,2.00
2022-11-26T16:19:37.749Z,2.22
2022-11-26T16:22:08.199Z,2.80
2022-11-26T16:27:25.011Z,2.03
2022-11-26T16:29:53.351Z,2.53
2022-11-26T16:32:21.592Z,2.00
2022-11-26T16:34:50.029Z,1.95
2022-11-26T16:37:23.541Z,1.55
2022-11-26T16:39:53.000Z,2.15
2022-11-26T16:42:22.936Z,2.13
2022-11-26T16:44:51.389Z,1.48
2022-11-26T16:47:24.202Z,1.92
2022-11-26T16:49:52.832Z,1.60
2022-11-26T16:52:22.653Z,1.98
2022-11-26T16:54:50.804Z,2.00
2022-11-26T16:57:21.164Z,1.67
2022-11-26T16:59:52.729Z,2.53
2022-11-26T17:02:24.223Z,2.55
2022-11-26T17:04:52.738Z,2.70
2022-11-26T17:07:25.949Z,1.90
2022-11-26T17:09:55.089Z,2.47
2022-11-26T17:12:26.042Z,1.88
2022-11-26T17:14:54.032Z,1.85
2022-11-26T17:17:29.425Z,2.05
2022-11-26T17:19:57.871Z,1.95
2022-11-26T17:22:27.380Z,1.58
2022-11-26T17:24:55.418Z,1.63
2022-11-26T17:27:32.651Z,1.45
2022-11-26T17:30:01.023Z,1.95
2022-11-26T17:32:29.405Z,1.40
2022-11-26T17:34:57.435Z,1.20
2022-11-26T17:37:28.613Z,1.20
2022-11-26T17:39:57.743Z,1.17
2022-11-26T17:42:26.201Z,1.40
2022-11-26T17:44:56.814Z,1.27
2022-11-26T17:47:26.285Z,1.35
2022-11-26T17:49:55.387Z,1.77
2022-11-26T17:52:23.954Z,1.90
2022-11-26T17:54:53.416Z,1.52
2022-11-26T17:57:22.925Z,1.60
2022-11-26T17:59:50.952Z,2.30
2022-11-26T18:02:19.011Z,2.45
2022-11-26T18:04:47.178Z,2.25
2022-11-26T18:07:17.713Z,2.13
2022-11-26T18:09:46.547Z,1.90
2022-11-26T18:12:24.942Z,2.05
2022-11-26T18:14:54.321Z,2.17
2022-11-26T18:17:22.843Z,1.67
2022-11-26T18:19:51.918Z,1.67
2022-11-26T18:22:25.248Z,1.92
2022-11-26T18:24:56.971Z,1.70
2022-11-26T18:27:28.699Z,2.28
2022-11-26T18:29:56.784Z,1.60
2022-11-26T18:32:24.878Z,1.90
2022-11-26T18:34:53.506Z,1.63
2022-11-26T18:37:21.733Z,1.77
2022-11-26T18:39:49.756Z,2.33
2022-11-26T18:45:09.955Z,1.45
2022-11-26T18:47:38.334Z,1.55
2022-11-26T18:50:07.829Z,1.02
2022-11-26T18:52:36.146Z,1.23
2022-11-26T18:55:08.400Z,1.08
2022-11-26T18:57:36.847Z,1.33
2022-11-26T19:00:09.003Z,1.05
2022-11-26T19:02:38.356Z,1.73
2022-11-26T19:05:08.062Z,0.98
2022-11-26T19:07:36.200Z,1.10
2022-11-26T19:10:04.392Z,0.95
2022-11-26T19:12:32.547Z,1.35
2022-11-26T19:15:01.545Z,1.10
2022-11-26T19:17:31.239Z,1.20
2022-11-26T19:19:59.442Z,1.63
2022-11-26T19:22:27.598Z,0.93
2022-11-26T19:24:55.739Z,1.23
2022-11-26T19:27:23.771Z,0.80
2022-11-26T19:29:51.813Z,0.82
2022-11-26T19:32:19.862Z,1.02
2022-11-26T19:34:49.315Z,1.08
2022-11-26T19:37:17.434Z,0.90
2022-11-26T19:39:45.427Z,0.85
2022-11-26T19:42:13.529Z,1.38
2022-11-26T19:44:41.850Z,2.20
2022-11-26T19:47:09.900Z,1.50
2022-11-26T19:49:38.258Z,1.20
2022-11-26T19:52:08.017Z,1.75
2022-11-26T19:54:36.050Z,1.20
2022-11-26T19:57:04.097Z,2.28
2022-11-26T19:59:32.280Z,2.55
2022-11-26T20:02:00.452Z,1.60
2022-11-26T20:04:29.704Z,1.38
2022-11-26T20:06:58.829Z,2.30
2022-11-26T20:09:28.221Z,1.92
2022-11-26T20:11:57.357Z,1.20
2022-11-26T20:14:25.402Z,1.38
2022-11-26T20:16:59.297Z,3.45
2022-11-26T20:19:28.874Z,3.97
2022-11-26T20:21:57.395Z,0.50
2022-11-26T20:24:25.444Z,7.38
2022-11-26T20:26:55.147Z,1.77
2022-11-26T20:29:23.250Z,0.60
2022-11-26T20:31:52.801Z,0.70
2022-11-26T20:34:22.744Z,0.85
2022-11-26T20:36:51.340Z,0.63
2022-11-26T20:39:21.569Z,0.70
2022-11-26T20:44:19.448Z,1.70
2022-11-26T20:46:47.493Z,2.42
2022-11-26T20:49:16.221Z,1.60
2022-11-26T20:51:44.388Z,1.75
2022-11-26T20:54:12.439Z,1.00
2022-11-26T20:56:40.441Z,1.05
2022-11-26T20:59:09.981Z,1.15
2022-11-26T21:01:39.912Z,1.10
2022-11-26T21:04:08.348Z,0.68
2022-11-26T21:06:36.962Z,1.15
2022-11-26T21:09:07.383Z,1.27
2022-11-26T21:11:35.695Z,0.52
2022-11-26T21:14:04.064Z,0.70
2022-11-26T21:16:32.808Z,0.52
2022-11-26T21:19:02.569Z,0.68
2022-11-26T21:21:30.718Z,0.68
2022-11-26T21:23:59.257Z,0.75
2022-11-26T21:26:27.960Z,0.65
2022-11-26T21:28:57.354Z,1.20
2022-11-26T21:31:26.315Z,1.33
2022-11-26T21:33:59.117Z,1.50
2022-11-26T21:36:29.283Z,1.48
2022-11-26T21:41:25.696Z,1.98
2022-11-26T21:43:53.749Z,1.35
2022-11-26T21:46:23.730Z,1.95
2022-11-26T21:48:52.912Z,1.42
2022-11-26T21:51:22.152Z,1.63
2022-11-26T21:53:56.708Z,1.67
2022-11-26T21:56:26.406Z,1.92
2022-11-26T21:58:56.982Z,2.40
2022-11-26T22:01:28.194Z,2.05
2022-11-26T22:03:59.274Z,1.30
2022-11-26T22:06:28.544Z,2.45
2022-11-26T22:08:58.339Z,1.67
2022-11-26T22:11:35.858Z,2.40
2022-11-26T22:14:08.661Z,1.48
2022-11-26T22:16:39.830Z,1.58
2022-11-26T22:19:08.214Z,2.13
2022-11-26T22:21:38.491Z,1.38
2022-11-26T22:24:11.929Z,2.13
2022-11-26T22:26:40.299Z,2.03
2022-11-26T22:29:08.955Z,1.65
2022-11-26T22:31:38.604Z,2.65
2022-11-26T22:34:09.569Z,2.17
2022-11-26T22:36:38.435Z,2.03
2022-11-26T22:39:11.580Z,1.95
2022-11-26T22:41:40.566Z,2.88
2022-11-26T22:44:09.611Z,2.45
2022-11-26T22:46:39.266Z,2.50
2022-11-26T22:49:08.442Z,3.20
2022-11-26T22:51:36.947Z,1.85
2022-11-26T22:54:07.034Z,1.50
2022-11-26T22:56:38.115Z,2.47
2022-11-26T22:59:07.223Z,2.72
2022-11-26T23:01:36.837Z,2.70
2022-11-26T23:04:07.330Z,2.67
2022-11-26T23:06:36.887Z,2.38
2022-11-26T23:09:08.427Z,2.45
2022-11-26T23:11:40.370Z,3.42
2022-11-26T23:14:12.141Z,2.83
2022-11-26T23:16:42.026Z,3.28
2022-11-26T23:19:10.833Z,2.88
2022-11-26T23:21:43.144Z,3.00
2022-11-26T23:24:11.657Z,2.63
2022-11-26T23:26:41.638Z,3.10
2022-11-26T23:29:10.381Z,4.35
2022-11-26T23:31:40.081Z,3.03
2022-11-26T23:34:09.154Z,3.05
2022-11-26T23:36:38.470Z,2.78
2022-11-26T23:39:08.474Z,2.65
2022-11-26T23:41:36.647Z,2.45
2022-11-26T23:44:06.403Z,3.00
2022-11-26T23:46:36.166Z,2.88
2022-11-26T23:49:04.788Z,3.10
2022-11-26T23:51:33.987Z,2.33
2022-11-26T23:54:02.214Z,2.60
2022-11-26T23:56:33.110Z,3.10
2022-11-26T23:59:03.084Z,3.35
